Time;durP1;ratioP1;P1;durP2;ratioP2;P2;SDS_P1;SDS_P2;PMS_P1;PMS_P2;Temp;Humidity;BMP_temperature;BMP_pressure;BME280_temperature;BME280_humidity;BME280_pressure;Samples;Min_cycle;Max_cycle;Signal;HPM_P1;HPM_P2
2023/04/22 00:02:16;;;;;;;;;;;;;;;;;;5094466;28;20431;-72
2023/04/22 00:04:41;;;;;;;;;;;;;;;;;;5094821;28;20001;-73
2023/04/22 00:07:07;;;;;;;;;;;;;;;;;;5094419;28;19955;-72
2023/04/22 00:09:33;;;;;;;;;;;;;;;;;;5094978;28;20086;-73
2023/04/22 00:12:00;;;;;;;;;;;;;;;;;;5092983;28;19966;-72
2023/04/22 00:14:26;;;;;;;;;;;;;;;;;;5094292;28;20423;-73
2023/04/22 00:16:52;;;;;;;;;;;;;;;;;;5094818;28;20047;-73
2023/04/22 00:19:18;;;;;;;;;;;;;;;;;;5094238;28;19959;-72
2023/04/22 00:21:44;;;;;;;;;;;;;;;;;;5094154;28;19986;-72
2023/04/22 00:24:10;;;;;;;;;;;;;;;;;;5094133;28;19959;-72
2023/04/22 00:26:36;;;;;;;;;;;;;;;;;;5094117;28;19956;-72
2023/04/22 00:29:01;;;;;;;;;;;;;;;;;;5094300;28;19955;-72
2023/04/22 00:31:27;;;;;;;;;;;;;;;;;;5094037;28;19959;-72
2023/04/22 00:33:53;;;;;;;;;;;;;;;;;;5094053;28;19959;-72
2023/04/22 00:36:19;;;;;;;;;;;;;;;;;;5093987;28;20472;-73
2023/04/22 00:38:45;;;;;;;;;;;;;;;;;;5093940;28;19955;-72
2023/04/22 00:41:11;;;;;;;;;;;;;;;;;;5093902;28;20494;-72
2023/04/22 00:43:37;;;;;;;;;;;;;;;;;;5094159;28;19962;-72
2023/04/22 00:46:03;;;;;;;;;;;;;;;;;;5093844;28;20374;-73
2023/04/22 00:48:29;;;;;;;;;;;;;;;;;;5093862;28;19956;-72
2023/04/22 00:50:55;;;;;;;;;;;;;;;;;;5093839;28;19954;-73
2023/04/22 00:53:21;;;;;;;;;;;;;;;;;;5093829;28;19993;-73
2023/04/22 00:55:47;;;;;;;;;;;;;;;;;;5093751;28;19955;-72
2023/04/22 00:58:13;;;;;;;;;;;;;;;;;;5094407;28;19962;-72
2023/04/22 01:00:39;;;;;;;;;;;;;;;;;;5093745;28;19955;-72
2023/04/22 01:03:06;;;;;;;;;;;;;;;;;;5094179;28;19975;-72
2023/04/22 01:05:32;;;;;;;;;;;;;;;;;;5093950;28;19969;-72
2023/04/22 01:07:57;;;;;;;;;;;;;;;;;;5094194;28;20034;-73
2023/04/22 01:10:23;;;;;;;;;;;;;;;;;;5093925;28;19959;-73
2023/04/22 01:12:49;;;;;;;;;;;;;;;;;;5093591;28;20364;-73
2023/04/22 01:15:15;;;;;;;;;;;;;;;;;;5093866;28;19955;-73
2023/04/22 01:17:41;;;;;;;;;;;;;;;;;;5093530;28;19959;-73
2023/04/22 01:20:09;;;;;;;;;;;;;;;;;;5093561;28;19955;-73
2023/04/22 01:22:35;;;;;;;;;;;;;;;;;;5093447;28;19983;-73
2023/04/22 01:25:01;;;;;;;;;;;;;;;;;;5093828;28;20001;-73
2023/04/22 01:27:27;;;;;;;;;;;;;;;;;;5093494;28;19955;-73
2023/04/22 01:29:53;;;;;;;;;;;;;;;;;;5093460;28;20078;-72
2023/04/22 01:32:19;;;;;;;;;;;;;;;;;;5093749;28;20008;-72
2023/04/22 01:34:45;;;;;;;;;;;;;;;;;;5092212;28;19966;-72
2023/04/22 01:37:11;;;;;;;;;;;;;;;;;;5093424;28;19955;-72
2023/04/22 01:39:37;;;;;;;;;;;;;;;;;;5093378;28;20403;-72
2023/04/22 01:42:03;;;;;;;;;;;;;;;;;;5092862;28;20052;-72
2023/04/22 01:44:29;;;;;;;;;;;;;;;;;;5093888;28;20387;-73
2023/04/22 01:46:55;;;;;;;;;;;;;;;;;;5093568;28;19962;-72
2023/04/22 01:49:21;;;;;;;;;;;;;;;;;;5093268;28;19956;-73
2023/04/22 01:51:47;;;;;;;;;;;;;;;;;;5093230;28;20322;-73
2023/04/22 01:54:13;;;;;;;;;;;;;;;;;;5093240;28;19955;-72
2023/04/22 01:56:39;;;;;;;;;;;;;;;;;;5093776;28;19956;-72
2023/04/22 01:59:05;;;;;;;;;;;;;;;;;;5093186;28;19962;-73
2023/04/22 02:01:31;;;;;;;;;;;;;;;;;;5093112;28;19975;-72
2023/04/22 02:03:57;;;;;;;;;;;;;;;;;;5093162;28;20323;-73
2023/04/22 02:06:22;;;;;;;;;;;;;;;;;;5095508;28;19997;-73
2023/04/22 02:08:48;;;;;;;;;;;;;;;;;;5095403;28;20415;-72
2023/04/22 02:11:14;;;;;;;;;;;;;;;;;;5096956;28;19959;-72
2023/04/22 02:13:40;;;;;;;;;;;;;;;;;;5096888;28;20319;-73
2023/04/22 02:16:06;;;;;;;;;;;;;;;;;;5096818;28;19955;-72
2023/04/22 02:18:32;;;;;;;;;;;;;;;;;;5096504;28;19955;-73
2023/04/22 02:20:58;;;;;;;;;;;;;;;;;;5096750;28;19955;-73
2023/04/22 02:23:24;;;;;;;;;;;;;;;;;;5096345;28;20312;-73
2023/04/22 02:25:50;;;;;;;;;;;;;;;;;;5096924;28;19955;-73
2023/04/22 02:28:16;;;;;;;;;;;;;;;;;;5096304;28;19955;-72
2023/04/22 02:30:42;;;;;;;;;;;;;;;;;;5096465;28;19971;-73
2023/04/22 02:33:07;;;;;;;;;;;;;;;;;;5096211;28;19955;-73
2023/04/22 02:35:34;;;;;;;;;;;;;;;;;;5096239;28;19955;-72
2023/04/22 02:38:00;;;;;;;;;;;;;;;;;;5094631;28;20335;-72
2023/04/22 02:40:26;;;;;;;;;;;;;;;;;;5095917;28;19994;-73
2023/04/22 02:42:52;;;;;;;;;;;;;;;;;;5096306;28;19975;-73
2023/04/22 02:45:18;;;;;;;;;;;;;;;;;;5095993;28;19955;-72
2023/04/22 02:47:44;;;;;;;;;;;;;;;;;;5095952;28;19966;-73
2023/04/22 02:50:10;;;;;;;;;;;;;;;;;;5095911;28;20042;-72
2023/04/22 02:52:36;;;;;;;;;;;;;;;;;;5094553;28;20025;-73
2023/04/22 02:55:01;;;;;;;;;;;;;;;;;;5096093;28;19955;-73
2023/04/22 02:57:27;;;;;;;;;;;;;;;;;;5095751;28;20041;-72
2023/04/22 02:59:53;;;;;;;;;;;;;;;;;;5096300;28;20315;-72
2023/04/22 03:02:19;;;;;;;;;;;;;;;;;;5095652;28;19978;-73
2023/04/22 03:04:45;;;;;;;;;;;;;;;;;;5096172;28;20292;-72
2023/04/22 03:07:11;;;;;;;;;;;;;;;;;;5095864;28;20025;-73
2023/04/22 03:09:37;;;;;;;;;;;;;;;;;;5095518;28;19955;-72
2023/04/22 03:12:03;;;;;;;;;;;;;;;;;;5095456;28;19962;-72
2023/04/22 03:14:29;;;;;;;;;;;;;;;;;;5095430;28;20438;-73
2023/04/22 03:16:55;;;;;;;;;;;;;;;;;;5095262;28;19959;-73
2023/04/22 03:19:21;;;;;;;;;;;;;;;;;;5095901;28;19962;-73
2023/04/22 03:21:47;;;;;;;;;;;;;;;;;;5095245;28;20343;-73
2023/04/22 03:24:13;;;;;;;;;;;;;;;;;;5095275;28;19955;-73
2023/04/22 03:26:38;;;;;;;;;;;;;;;;;;5095225;28;19955;-72
2023/04/22 03:29:04;;;;;;;;;;;;;;;;;;5095137;28;20046;-73
2023/04/22 03:31:30;;;;;;;;;;;;;;;;;;5095142;28;19966;-73
2023/04/22 03:33:56;;;;;;;;;;;;;;;;;;5095619;28;20422;-72
2023/04/22 03:36:22;;;;;;;;;;;;;;;;;;5095366;28;19981;-72
2023/04/22 03:38:48;;;;;;;;;;;;;;;;;;5095269;28;20362;-73
2023/04/22 03:41:14;;;;;;;;;;;;;;;;;;5094680;28;20413;-72
2023/04/22 03:43:40;;;;;;;;;;;;;;;;;;5094928;28;19955;-73
2023/04/22 03:46:06;;;;;;;;;;;;;;;;;;5094861;28;20335;-73
2023/04/22 03:48:34;;;;;;;;;;;;;;;;;;5095328;28;20412;-73
2023/04/22 03:51:00;;;;;;;;;;;;;;;;;;5094754;28;19955;-73
2023/04/22 03:53:26;;;;;;;;;;;;;;;;;;5095013;28;20007;-72
2023/04/22 03:55:52;;;;;;;;;;;;;;;;;;5094946;28;20396;-72
2023/04/22 03:58:18;;;;;;;;;;;;;;;;;;5095210;28;19959;-73
2023/04/22 04:00:44;;;;;;;;;;;;;;;;;;5094573;28;20484;-72
2023/04/22 04:03:10;;;;;;;;;;;;;;;;;;5094442;28;20025;-73
2023/04/22 04:05:36;;;;;;;;;;;;;;;;;;5094772;28;19998;-73
2023/04/22 04:08:02;;;;;;;;;;;;;;;;;;5094698;28;20426;-73
2023/04/22 04:10:28;;;;;;;;;;;;;;;;;;5094940;28;20415;-72
2023/04/22 04:12:53;;;;;;;;;;;;;;;;;;5094335;28;19954;-72
2023/04/22 04:15:20;;;;;;;;;;;;;;;;;;5094273;28;19955;-72
2023/04/22 04:17:46;;;;;;;;;;;;;;;;;;5094868;28;19955;-73
2023/04/22 04:20:12;;;;;;;;;;;;;;;;;;5094241;28;20042;-72
2023/04/22 04:22:38;;;;;;;;;;;;;;;;;;5094744;28;20508;-72
2023/04/22 04:25:05;;;;;;;;;;;;;;;;;;5094481;28;19959;-72
2023/04/22 04:27:31;;;;;;;;;;;;;;;;;;5093958;28;20473;-72
2023/04/22 04:29:57;;;;;;;;;;;;;;;;;;5094320;28;20030;-72
2023/04/22 04:32:23;;;;;;;;;;;;;;;;;;5094047;28;19955;-72
2023/04/22 04:34:51;;;;;;;;;;;;;;;;;;5094279;28;19962;-73
2023/04/22 04:37:17;;;;;;;;;;;;;;;;;;5094256;28;19962;-72
2023/04/22 04:39:43;;;;;;;;;;;;;;;;;;5093945;28;19963;-73
2023/04/22 04:42:09;;;;;;;;;;;;;;;;;;5093372;28;20048;-72
2023/04/22 04:44:35;;;;;;;;;;;;;;;;;;5093890;28;20006;-72
2023/04/22 04:47:01;;;;;;;;;;;;;;;;;;5094146;28;20004;-72
2023/04/22 04:49:29;;;;;;;;;;;;;;;;;;5093808;28;19962;-72
2023/04/22 04:51:55;;;;;;;;;;;;;;;;;;5094050;28;19964;-72
2023/04/22 04:54:21;;;;;;;;;;;;;;;;;;5093796;28;19955;-72
2023/04/22 04:56:47;;;;;;;;;;;;;;;;;;5094072;28;19956;-72
2023/04/22 04:59:13;;;;;;;;;;;;;;;;;;5093717;28;19956;-73
2023/04/22 05:01:39;;;;;;;;;;;;;;;;;;5093645;28;19975;-73
2023/04/22 05:04:05;;;;;;;;;;;;;;;;;;5093967;28;19959;-73
2023/04/22 05:06:32;;;;;;;;;;;;;;;;;;5093664;28;19955;-72
2023/04/22 05:08:58;;;;;;;;;;;;;;;;;;5093644;28;20005;-73
2023/04/22 05:11:24;;;;;;;;;;;;;;;;;;5093923;28;19959;-72
2023/04/22 05:13:50;;;;;;;;;;;;;;;;;;5093871;28;19963;-73
2023/04/22 05:16:16;;;;;;;;;;;;;;;;;;5093663;28;19955;-72
2023/04/22 05:18:41;;;;;;;;;;;;;;;;;;5093887;28;19955;-73
2023/04/22 05:21:08;;;;;;;;;;;;;;;;;;5093882;28;20441;-72
2023/04/22 05:23:34;;;;;;;;;;;;;;;;;;5094038;28;20135;-72
2023/04/22 05:26:00;;;;;;;;;;;;;;;;;;5093814;28;19955;-72
2023/04/22 05:28:25;;;;;;;;;;;;;;;;;;5093531;28;19955;-72
2023/04/22 05:30:51;;;;;;;;;;;;;;;;;;5093392;28;19994;-73
2023/04/22 05:33:17;;;;;;;;;;;;;;;;;;5093685;28;20013;-72
2023/04/22 05:35:44;;;;;;;;;;;;;;;;;;5093377;28;19955;-73
2023/04/22 05:38:10;;;;;;;;;;;;;;;;;;5093769;28;20065;-73
2023/04/22 05:40:36;;;;;;;;;;;;;;;;;;5094401;28;19999;-72
2023/04/22 05:43:02;;;;;;;;;;;;;;;;;;5097156;28;19975;-72
2023/04/22 05:45:28;;;;;;;;;;;;;;;;;;5097745;28;20453;-72
2023/04/22 05:47:54;;;;;;;;;;;;;;;;;;5097395;28;20032;-72
2023/04/22 05:50:19;;;;;;;;;;;;;;;;;;5097111;28;19995;-72
2023/04/22 05:52:45;;;;;;;;;;;;;;;;;;5097591;28;20407;-73
2023/04/22 05:55:11;;;;;;;;;;;;;;;;;;5097258;28;19963;-72
2023/04/22 05:57:37;;;;;;;;;;;;;;;;;;5096960;28;20373;-72
2023/04/22 06:00:03;;;;;;;;;;;;;;;;;;5096872;28;19955;-72
2023/04/22 06:02:29;;;;;;;;;;;;;;;;;;5097080;28;19984;-73
2023/04/22 06:04:55;;;;;;;;;;;;;;;;;;5096778;28;20054;-72
2023/04/22 06:07:21;;;;;;;;;;;;;;;;;;5097050;28;20357;-72
2023/04/22 06:09:47;;;;;;;;;;;;;;;;;;5096716;28;19956;-73
2023/04/22 06:12:13;;;;;;;;;;;;;;;;;;5096678;28;19955;-72
2023/04/22 06:14:39;;;;;;;;;;;;;;;;;;5096899;28;20058;-72
2023/04/22 06:17:04;;;;;;;;;;;;;;;;;;5096859;28;20407;-72
2023/04/22 06:19:30;;;;;;;;;;;;;;;;;;5097112;28;19959;-73
2023/04/22 06:21:56;;;;;;;;;;;;;;;;;;5096397;28;19982;-73
2023/04/22 06:24:22;;;;;;;;;;;;;;;;;;5097025;28;20304;-72
2023/04/22 06:26:48;;;;;;;;;;;;;;;;;;5096710;28;19956;-72
2023/04/22 06:29:14;;;;;;;;;;;;;;;;;;5096824;28;19959;-72
2023/04/22 06:31:40;;;;;;;;;;;;;;;;;;5096304;28;20001;-73
2023/04/22 06:34:06;;;;;;;;;;;;;;;;;;5096277;28;19955;-73
2023/04/22 06:36:36;;;;;;;;;;;;;;;;;;5096218;28;20004;-72
2023/04/22 06:39:02;;;;;;;;;;;;;;;;;;5096141;28;19955;-72
2023/04/22 06:41:28;;;;;;;;;;;;;;;;;;5095819;28;20125;-73
2023/04/22 06:43:54;;;;;;;;;;;;;;;;;;5096374;28;20431;-72
2023/04/22 06:46:20;;;;;;;;;;;;;;;;;;5096035;28;19955;-72
2023/04/22 06:48:46;;;;;;;;;;;;;;;;;;5096298;28;20301;-72
2023/04/22 06:51:12;;;;;;;;;;;;;;;;;;5095484;28;20005;-73
2023/04/22 06:53:38;;;;;;;;;;;;;;;;;;5096153;28;19956;-72
2023/04/22 06:56:04;;;;;;;;;;;;;;;;;;5095800;28;19959;-73
2023/04/22 06:58:30;;;;;;;;;;;;;;;;;;5095787;28;19977;-73
2023/04/22 07:00:56;;;;;;;;;;;;;;;;;;5095686;28;20014;-72
2023/04/22 07:03:21;;;;;;;;;;;;;;;;;;5095627;28;19982;-73
2023/04/22 07:05:47;;;;;;;;;;;;;;;;;;5095659;28;19978;-73
2023/04/22 07:08:13;;;;;;;;;;;;;;;;;;5096189;28;20379;-73
2023/04/22 07:10:39;;;;;;;;;;;;;;;;;;5095571;28;19956;-72
2023/04/22 07:13:05;;;;;;;;;;;;;;;;;;5095456;28;19990;-73
2023/04/22 07:15:32;;;;;;;;;;;;;;;;;;5095445;28;19962;-72
2023/04/22 07:17:58;;;;;;;;;;;;;;;;;;5093898;28;19959;-72
2023/04/22 07:20:24;;;;;;;;;;;;;;;;;;5095376;28;20030;-72
2023/04/22 07:22:50;;;;;;;;;;;;;;;;;;5093994;28;19983;-72
2023/04/22 07:25:15;;;;;;;;;;;;;;;;;;5095304;28;19959;-72
2023/04/22 07:27:41;;;;;;;;;;;;;;;;;;5095843;28;20451;-72
2023/04/22 07:30:07;;;;;;;;;;;;;;;;;;5095140;28;19971;-72
2023/04/22 07:32:33;;;;;;;;;;;;;;;;;;5095698;28;19955;-73
2023/04/22 07:35:00;;;;;;;;;;;;;;;;;;5095351;28;19962;-72
2023/04/22 07:37:26;;;;;;;;;;;;;;;;;;5093525;28;20328;-73
2023/04/22 07:39:52;;;;;;;;;;;;;;;;;;5094981;28;19962;-73
2023/04/22 07:42:19;;;;;;;;;;;;;;;;;;5094674;28;19991;-73
2023/04/22 07:44:45;;;;;;;;;;;;;;;;;;5095490;28;20043;-73
2023/04/22 07:47:11;;;;;;;;;;;;;;;;;;5094884;28;19955;-72
2023/04/22 07:49:37;;;;;;;;;;;;;;;;;;5095346;28;20014;-73
2023/04/22 07:52:03;;;;;;;;;;;;;;;;;;5094731;28;20419;-72
2023/04/22 07:54:29;;;;;;;;;;;;;;;;;;5094697;28;20012;-72
2023/04/22 07:56:57;;;;;;;;;;;;;;;;;;5094919;28;19959;-72
2023/04/22 07:59:23;;;;;;;;;;;;;;;;;;5093337;28;19963;-72
2023/04/22 08:01:48;;;;;;;;;;;;;;;;;;5094815;28;19975;-73
2023/04/22 08:04:14;;;;;;;;;;;;;;;;;;5093719;28;20402;-72
2023/04/22 08:06:40;;;;;;;;;;;;;;;;;;5094749;28;19955;-72
2023/04/22 08:09:06;;;;;;;;;;;;;;;;;;5094422;28;19955;-72
2023/04/22 08:11:32;;;;;;;;;;;;;;;;;;5094697;28;19963;-73
2023/04/22 08:13:58;;;;;;;;;;;;;;;;;;5094304;28;19959;-73
2023/04/22 08:16:24;;;;;;;;;;;;;;;;;;5094611;28;20061;-73
2023/04/22 08:18:51;;;;;;;;;;;;;;;;;;5094250;28;19955;-72
2023/04/22 08:21:16;;;;;;;;;;;;;;;;;;5094512;28;19956;-72
2023/04/22 08:23:42;;;;;;;;;;;;;;;;;;5094113;28;20028;-72
2023/04/22 08:26:13;;;;;;;;;;;;;;;;;;5094187;28;19955;-73
2023/04/22 08:28:40;;;;;;;;;;;;;;;;;;5094716;28;19970;-73
2023/04/22 08:31:08;;;;;;;;;;;;;;;;;;5093794;28;20336;-73
2023/04/22 08:33:33;;;;;;;;;;;;;;;;;;5094475;28;19955;-73
2023/04/22 08:35:59;;;;;;;;;;;;;;;;;;5093747;28;20000;-73
2023/04/22 08:38:25;;;;;;;;;;;;;;;;;;5094089;28;20323;-68
2023/04/22 08:40:51;;;;;;;;;;;;;;;;;;5093522;28;20433;-71
2023/04/22 08:43:17;;;;;;;;;;;;;;;;;;5093702;28;19975;-69
2023/04/22 08:45:43;;;;;;;;;;;;;;;;;;5093410;28;19955;-70
2023/04/22 08:48:09;;;;;;;;;;;;;;;;;;5093905;28;19963;-66
2023/04/22 08:50:35;;;;;;;;;;;;;;;;;;5093864;28;19960;-67
2023/04/22 08:53:01;;;;;;;;;;;;;;;;;;5093701;28;19955;-69
2023/04/22 08:55:27;;;;;;;;;;;;;;;;;;5093674;28;19998;-68
2023/04/22 08:57:52;;;;;;;;;;;;;;;;;;5093636;28;19955;-68
2023/04/22 09:00:18;;;;;;;;;;;;;;;;;;5093756;28;19956;-69
2023/04/22 09:02:44;;;;;;;;;;;;;;;;;;5093410;28;20006;-73
2023/04/22 09:05:10;;;;;;;;;;;;;;;;;;5093431;28;19955;-68
2023/04/22 09:07:37;;;;;;;;;;;;;;;;;;5093883;28;19956;-71
2023/04/22 09:10:02;;;;;;;;;;;;;;;;;;5094262;28;19955;-71
2023/04/22 09:12:28;;;;;;;;;;;;;;;;;;5093794;28;19965;-70
2023/04/22 09:14:54;;;;;;;;;;;;;;;;;;5095764;28;19996;-72
2023/04/22 09:17:20;;;;;;;;;;;;;;;;;;5098163;28;19955;-69
2023/04/22 09:19:46;;;;;;;;;;;;;;;;;;5097608;28;19970;-69
2023/04/22 09:22:14;;;;;;;;;;;;;;;;;;5097992;28;20381;-73
2023/04/22 09:24:40;;;;;;;;;;;;;;;;;;5097764;28;20038;-70
2023/04/22 09:27:06;;;;;;;;;;;;;;;;;;5098002;28;20001;-69
2023/04/22 09:29:32;;;;;;;;;;;;;;;;;;5097394;28;19971;-69
2023/04/22 09:31:58;;;;;;;;;;;;;;;;;;5097950;28;19955;-71
2023/04/22 09:34:24;;;;;;;;;;;;;;;;;;5097621;28;19955;-66
2023/04/22 09:36:50;;;;;;;;;;;;;;;;;;5097564;28;20315;-69
2023/04/22 09:39:16;;;;;;;;;;;;;;;;;;5097231;28;20069;-68
2023/04/22 09:41:42;;;;;;;;;;;;;;;;;;5096916;28;20490;-67
2023/04/22 09:44:08;;;;;;;;;;;;;;;;;;5097706;28;19994;-67
2023/04/22 09:46:34;;;;;;;;;;;;;;;;;;5097342;28;19955;-67
2023/04/22 09:49:00;;;;;;;;;;;;;;;;;;5097119;28;19955;-69
2023/04/22 09:51:28;;;;;;;;;;;;;;;;;;5097374;28;19955;-67
2023/04/22 09:53:54;;;;;;;;;;;;;;;;;;5097012;28;19959;-67
2023/04/22 09:56:22;;;;;;;;;;;;;;;;;;5083540;28;20050;-69
2023/04/22 09:58:47;;;;;;;;;;;;;;;;;;5081856;28;19959;-66
2023/04/22 10:01:13;;;;;;;;;;;;;;;;;;5077180;28;19964;-67
2023/04/22 10:03:39;;;;;;;;;;;;;;;;;;5078320;28;20447;-67
2023/04/22 10:06:05;;;;;;;;;;;;;;;;;;5076563;28;19959;-67
2023/04/22 10:08:32;;;;;;;;;;;;;;;;;;5089823;28;20012;-67
2023/04/22 10:10:58;;;;;;;;;;;;;;;;;;5093103;28;19963;-67
2023/04/22 10:13:23;;;;;;;;;;;;;;;;;;5097307;28;20361;-67
2023/04/22 10:15:49;;;;;;;;;;;;;;;;;;5096627;28;19959;-69
2023/04/22 10:18:15;;;;;;;;;;;;;;;;;;5096827;28;19960;-69
2023/04/22 10:20:41;;;;;;;;;;;;;;;;;;5095873;28;19955;-67
2023/04/22 10:23:07;;;;;;;;;;;;;;;;;;5095644;28;20002;-67
2023/04/22 10:25:33;;;;;;;;;;;;;;;;;;5095174;28;19955;-69
2023/04/22 10:27:59;;;;;;;;;;;;;;;;;;5094100;28;20354;-68
2023/04/22 10:30:25;;;;;;;;;;;;;;;;;;5094300;28;19977;-69
2023/04/22 10:32:51;;;;;;;;;;;;;;;;;;5094752;28;19955;-68
2023/04/22 10:35:17;;;;;;;;;;;;;;;;;;5095527;28;19970;-69
2023/04/22 10:37:44;;;;;;;;;;;;;;;;;;5095842;28;19956;-68
2023/04/22 10:40:10;;;;;;;;;;;;;;;;;;5095746;28;19995;-68
2023/04/22 10:42:36;;;;;;;;;;;;;;;;;;5096000;28;20069;-69
2023/04/22 10:45:02;;;;;;;;;;;;;;;;;;5096180;28;20005;-68
2023/04/22 10:47:28;;;;;;;;;;;;;;;;;;5096391;28;20123;-69
2023/04/22 10:49:54;;;;;;;;;;;;;;;;;;5096218;28;20431;-69
2023/04/22 10:52:20;;;;;;;;;;;;;;;;;;5096560;28;19956;-69
2023/04/22 10:54:46;;;;;;;;;;;;;;;;;;5096203;28;20046;-68
2023/04/22 10:57:15;;;;;;;;;;;;;;;;;;5095888;28;20399;-69
2023/04/22 10:59:41;;;;;;;;;;;;;;;;;;5096356;28;19955;-68
2023/04/22 11:02:07;;;;;;;;;;;;;;;;;;5095715;28;19975;-68
2023/04/22 11:04:33;;;;;;;;;;;;;;;;;;5095774;28;20423;-68
2023/04/22 11:06:58;;;;;;;;;;;;;;;;;;5095706;28;20008;-68
2023/04/22 11:09:24;;;;;;;;;;;;;;;;;;5095946;28;19959;-69
2023/04/22 11:11:51;;;;;;;;;;;;;;;;;;5095615;28;19956;-68
2023/04/22 11:14:17;;;;;;;;;;;;;;;;;;5096070;28;19962;-69
2023/04/22 11:16:43;;;;;;;;;;;;;;;;;;5095525;28;19955;-68
2023/04/22 11:19:09;;;;;;;;;;;;;;;;;;5095751;28;20335;-69
2023/04/22 11:21:35;;;;;;;;;;;;;;;;;;5095338;28;19959;-68
2023/04/22 11:24:04;;;;;;;;;;;;;;;;;;5095618;28;20045;-69
2023/04/22 11:26:30;;;;;;;;;;;;;;;;;;5095315;28;19955;-68
2023/04/22 11:28:56;;;;;;;;;;;;;;;;;;5095470;28;19963;-68
2023/04/22 11:31:22;;;;;;;;;;;;;;;;;;5095488;28;19970;-68
2023/04/22 11:33:48;;;;;;;;;;;;;;;;;;5095157;28;20045;-68
2023/04/22 11:36:14;;;;;;;;;;;;;;;;;;5095135;28;19956;-69
2023/04/22 11:38:40;;;;;;;;;;;;;;;;;;5095034;28;19962;-68
2023/04/22 11:41:06;;;;;;;;;;;;;;;;;;5094971;28;20027;-69
2023/04/22 11:43:32;;;;;;;;;;;;;;;;;;5094858;28;19975;-69
2023/04/22 11:45:58;;;;;;;;;;;;;;;;;;5095202;28;19956;-69
2023/04/22 11:48:24;;;;;;;;;;;;;;;;;;5094888;28;19963;-69
2023/04/22 11:50:50;;;;;;;;;;;;;;;;;;5094814;28;19962;-69
2023/04/22 11:53:16;;;;;;;;;;;;;;;;;;5094787;28;19955;-68
2023/04/22 11:55:42;;;;;;;;;;;;;;;;;;5094984;28;19955;-68
2023/04/22 11:58:07;;;;;;;;;;;;;;;;;;5094742;28;20020;-68
2023/04/22 12:00:33;;;;;;;;;;;;;;;;;;5094957;28;20307;-68
2023/04/22 12:02:59;;;;;;;;;;;;;;;;;;5094536;28;20002;-68
2023/04/22 12:05:25;;;;;;;;;;;;;;;;;;5094825;28;19962;-68
2023/04/22 12:07:51;;;;;;;;;;;;;;;;;;5094532;28;20046;-68
2023/04/22 12:10:17;;;;;;;;;;;;;;;;;;5095074;28;20452;-68
2023/04/22 12:12:45;;;;;;;;;;;;;;;;;;5094715;28;19962;-68
2023/04/22 12:15:13;;;;;;;;;;;;;;;;;;5094205;28;20373;-68
2023/04/22 12:17:39;;;;;;;;;;;;;;;;;;5093103;28;20002;-68
2023/04/22 12:20:06;;;;;;;;;;;;;;;;;;5093063;28;20055;-68
2023/04/22 12:22:32;;;;;;;;;;;;;;;;;;5094783;28;19982;-68
2023/04/22 12:24:58;;;;;;;;;;;;;;;;;;5094235;28;20423;-68
2023/04/22 12:27:24;;;;;;;;;;;;;;;;;;5094490;28;19962;-68
2023/04/22 12:29:50;;;;;;;;;;;;;;;;;;5094096;28;19971;-69
2023/04/22 12:32:16;;;;;;;;;;;;;;;;;;5094175;28;19962;-69
2023/04/22 12:34:43;;;;;;;;;;;;;;;;;;5094698;28;19955;-68
2023/04/22 12:37:08;;;;;;;;;;;;;;;;;;5092536;28;19959;-68
2023/04/22 12:39:36;;;;;;;;;;;;;;;;;;5094337;28;19965;-68
2023/04/22 12:42:04;;;;;;;;;;;;;;;;;;5093533;28;20530;-68
2023/04/22 12:44:30;;;;;;;;;;;;;;;;;;5092734;28;20376;-68
2023/04/22 12:46:56;;;;;;;;;;;;;;;;;;5093997;28;20053;-68
2023/04/22 12:49:22;;;;;;;;;;;;;;;;;;5094062;28;19961;-68
2023/04/22 12:51:48;;;;;;;;;;;;;;;;;;5094188;28;19962;-68
2023/04/22 12:54:13;;;;;;;;;;;;;;;;;;5093840;28;19955;-68
2023/04/22 12:56:39;;;;;;;;;;;;;;;;;;5093842;28;20049;-68
2023/04/22 12:59:05;;;;;;;;;;;;;;;;;;5093807;28;19955;-68
2023/04/22 13:01:31;;;;;;;;;;;;;;;;;;5094306;28;19955;-68
2023/04/22 13:03:57;;;;;;;;;;;;;;;;;;5094008;28;19986;-69
2023/04/22 13:06:23;;;;;;;;;;;;;;;;;;5093743;28;20366;-68
2023/04/22 13:08:49;;;;;;;;;;;;;;;;;;5093732;28;20002;-69
2023/04/22 13:11:15;;;;;;;;;;;;;;;;;;5093692;28;19959;-68
2023/04/22 13:13:41;;;;;;;;;;;;;;;;;;5093705;28;19962;-68
2023/04/22 13:16:07;;;;;;;;;;;;;;;;;;5093975;28;19959;-68
2023/04/22 13:18:32;;;;;;;;;;;;;;;;;;5093649;28;20301;-68
2023/04/22 13:20:59;;;;;;;;;;;;;;;;;;5093656;28;19962;-68
2023/04/22 13:23:25;;;;;;;;;;;;;;;;;;5093547;28;20414;-69
2023/04/22 13:25:51;;;;;;;;;;;;;;;;;;5094366;28;20419;-69
2023/04/22 13:28:17;;;;;;;;;;;;;;;;;;5093536;28;19962;-68
2023/04/22 13:30:43;;;;;;;;;;;;;;;;;;5093735;28;19975;-68
2023/04/22 13:33:09;;;;;;;;;;;;;;;;;;5093505;28;20438;-68
2023/04/22 13:35:35;;;;;;;;;;;;;;;;;;5093733;28;19999;-69
2023/04/22 13:38:01;;;;;;;;;;;;;;;;;;5092155;28;19960;-68
2023/04/22 13:40:27;;;;;;;;;;;;;;;;;;5093200;28;19993;-68
2023/04/22 13:42:53;;;;;;;;;;;;;;;;;;5092991;28;20451;-68
2023/04/22 13:45:19;;;;;;;;;;;;;;;;;;5093884;28;19955;-69
2023/04/22 13:47:45;;;;;;;;;;;;;;;;;;5093240;28;20005;-68
2023/04/22 13:50:11;;;;;;;;;;;;;;;;;;5093250;28;20010;-68
2023/04/22 13:52:37;;;;;;;;;;;;;;;;;;5093605;28;19963;-69
2023/04/22 13:55:03;;;;;;;;;;;;;;;;;;5093262;28;19956;-69
2023/04/22 13:57:29;;;;;;;;;;;;;;;;;;5093548;28;19955;-68
2023/04/22 13:59:55;;;;;;;;;;;;;;;;;;5093183;28;19959;-68
2023/04/22 14:02:21;;;;;;;;;;;;;;;;;;5095432;28;20043;-68
2023/04/22 14:04:47;;;;;;;;;;;;;;;;;;5096817;28;19963;-68
2023/04/22 14:07:13;;;;;;;;;;;;;;;;;;5096777;28;19978;-68
2023/04/22 14:09:39;;;;;;;;;;;;;;;;;;5096947;28;19955;-68
2023/04/22 14:12:05;;;;;;;;;;;;;;;;;;5096702;28;20453;-68
2023/04/22 14:14:30;;;;;;;;;;;;;;;;;;5096990;28;19955;-69
2023/04/22 14:16:56;;;;;;;;;;;;;;;;;;5096715;28;19955;-68
2023/04/22 14:19:23;;;;;;;;;;;;;;;;;;5096619;28;19990;-68
2023/04/22 14:21:49;;;;;;;;;;;;;;;;;;5096469;28;19960;-67
2023/04/22 14:24:15;;;;;;;;;;;;;;;;;;5096478;28;19959;-68
2023/04/22 14:26:41;;;;;;;;;;;;;;;;;;5096478;28;20104;-68
2023/04/22 14:29:07;;;;;;;;;;;;;;;;;;5096961;28;19956;-69
2023/04/22 14:31:33;;;;;;;;;;;;;;;;;;5096344;28;20413;-69
2023/04/22 14:33:59;;;;;;;;;;;;;;;;;;5096617;28;19955;-68
2023/04/22 14:36:26;;;;;;;;;;;;;;;;;;5096182;28;19959;-68
2023/04/22 14:38:52;;;;;;;;;;;;;;;;;;5096512;28;20005;-68
2023/04/22 14:41:18;;;;;;;;;;;;;;;;;;5095972;28;20083;-68
2023/04/22 14:43:44;;;;;;;;;;;;;;;;;;5096623;28;19981;-68
2023/04/22 14:46:10;;;;;;;;;;;;;;;;;;5096070;28;19959;-68
2023/04/22 14:48:38;;;;;;;;;;;;;;;;;;5096324;28;20047;-68
2023/04/22 14:51:03;;;;;;;;;;;;;;;;;;5095980;28;20046;-68
2023/04/22 14:53:29;;;;;;;;;;;;;;;;;;5095929;28;19990;-68
2023/04/22 14:55:55;;;;;;;;;;;;;;;;;;5096441;28;20323;-69
2023/04/22 14:58:21;;;;;;;;;;;;;;;;;;5094580;28;20454;-68
2023/04/22 15:00:48;;;;;;;;;;;;;;;;;;5095777;28;20005;-68
2023/04/22 15:03:14;;;;;;;;;;;;;;;;;;5095672;28;19975;-68
2023/04/22 15:05:39;;;;;;;;;;;;;;;;;;5095967;28;19959;-68
2023/04/22 15:08:05;;;;;;;;;;;;;;;;;;5095832;28;19966;-69
2023/04/22 15:10:31;;;;;;;;;;;;;;;;;;5096037;28;20439;-68
2023/04/22 15:12:57;;;;;;;;;;;;;;;;;;5095561;28;19955;-68
2023/04/22 15:15:24;;;;;;;;;;;;;;;;;;5095406;28;19962;-68
2023/04/22 15:17:50;;;;;;;;;;;;;;;;;;5095782;28;19956;-69
2023/04/22 15:20:16;;;;;;;;;;;;;;;;;;5095392;28;20001;-68
2023/04/22 15:22:42;;;;;;;;;;;;;;;;;;5095217;28;19975;-68
2023/04/22 15:25:08;;;;;;;;;;;;;;;;;;5095270;28;19955;-68
2023/04/22 15:27:34;;;;;;;;;;;;;;;;;;5095279;28;20001;-68
2023/04/22 15:30:00;;;;;;;;;;;;;;;;;;5095138;28;19971;-68
2023/04/22 15:32:26;;;;;;;;;;;;;;;;;;5095435;28;19959;-69
2023/04/22 15:34:52;;;;;;;;;;;;;;;;;;5095411;28;19955;-69
2023/04/22 15:37:18;;;;;;;;;;;;;;;;;;5094992;28;19955;-68
2023/04/22 15:39:44;;;;;;;;;;;;;;;;;;5095591;28;20038;-68
2023/04/22 15:42:09;;;;;;;;;;;;;;;;;;5094493;28;20359;-68
2023/04/22 15:44:36;;;;;;;;;;;;;;;;;;5094928;28;20001;-69
2023/04/22 15:47:02;;;;;;;;;;;;;;;;;;5095405;28;19955;-68
2023/04/22 15:49:28;;;;;;;;;;;;;;;;;;5095121;28;20110;-68
2023/04/22 15:51:54;;;;;;;;;;;;;;;;;;5095124;28;20312;-69
2023/04/22 15:54:20;;;;;;;;;;;;;;;;;;5095023;28;19959;-68
2023/04/22 15:56:46;;;;;;;;;;;;;;;;;;5094756;28;20016;-68
2023/04/22 15:59:12;;;;;;;;;;;;;;;;;;5095025;28;20045;-69
2023/04/22 16:01:38;;;;;;;;;;;;;;;;;;5094682;28;20326;-69
2023/04/22 16:04:04;;;;;;;;;;;;;;;;;;5094783;28;20042;-68
2023/04/22 16:06:31;;;;;;;;;;;;;;;;;;5094793;28;19955;-68
2023/04/22 16:08:56;;;;;;;;;;;;;;;;;;5094460;28;20430;-68
2023/04/22 16:11:22;;;;;;;;;;;;;;;;;;5094525;28;19956;-68
2023/04/22 16:13:48;;;;;;;;;;;;;;;;;;5094650;28;20005;-69
2023/04/22 16:16:14;;;;;;;;;;;;;;;;;;5094702;28;20400;-69
2023/04/22 16:18:40;;;;;;;;;;;;;;;;;;5094631;28;19959;-69
2023/04/22 16:21:06;;;;;;;;;;;;;;;;;;5094318;28;19956;-68
2023/04/22 16:23:33;;;;;;;;;;;;;;;;;;5094048;28;19974;-68
2023/04/22 16:26:01;;;;;;;;;;;;;;;;;;5094284;28;20451;-68
2023/04/22 16:28:27;;;;;;;;;;;;;;;;;;5094288;28;19956;-68
2023/04/22 16:30:53;;;;;;;;;;;;;;;;;;5094152;28;20020;-69
2023/04/22 16:33:19;;;;;;;;;;;;;;;;;;5094751;28;20456;-68
2023/04/22 16:35:45;;;;;;;;;;;;;;;;;;5094424;28;19959;-68
2023/04/22 16:38:10;;;;;;;;;;;;;;;;;;5094361;28;20360;-68